Time;durP1;ratioP1;P1;durP2;ratioP2;P2;SDS_P1;SDS_P2;PMS_P1;PMS_P2;Temp;Humidity;BMP_temperature;BMP_pressure;BME280_temperature;BME280_humidity;BME280_pressure;Samples;Min_cycle;Max_cycle;Signal;HPM_P1;HPM_P2
2022/11/24 00:01:15;;;;;;;4.10;2.60;;;;;;;13.95;100.00;95471.28;4996825;28;20768;-47
2022/11/24 00:03:44;;;;;;;3.22;2.63;;;;;;;14.05;100.00;95489.50;4994874;28;20094;-48
2022/11/24 00:06:14;;;;;;;3.58;2.75;;;;;;;14.35;100.00;95491.00;5003775;28;20089;-44
2022/11/24 00:08:45;;;;;;;3.85;2.85;;;;;;;14.37;100.00;95491.63;5002594;28;20092;-44
2022/11/24 00:11:15;;;;;;;3.92;2.83;;;;;;;14.36;100.00;95502.44;4997689;28;20085;-44
2022/11/24 00:13:43;;;;;;;3.67;2.60;;;;;;;13.99;100.00;95507.81;5009186;28;20089;-45
2022/11/24 00:16:13;;;;;;;3.67;2.70;;;;;;;13.84;100.00;95514.19;5002727;28;20092;-48
2022/11/24 00:18:44;;;;;;;3.33;2.45;;;;;;;14.33;100.00;95521.38;5008511;28;20085;-48
2022/11/24 00:21:13;;;;;;;2.90;2.55;;;;;;;13.97;100.00;95514.28;5005226;28;20088;-48
2022/11/24 00:23:41;;;;;;;6.55;3.05;;;;;;;13.90;100.00;95522.22;5005243;28;20092;-47
2022/11/24 00:26:12;;;;;;;7.20;3.13;;;;;;;13.70;100.00;95516.69;5005098;28;20081;-43
2022/11/24 00:28:41;;;;;;;4.47;2.67;;;;;;;13.88;100.00;95544.59;4996841;28;20093;-45
2022/11/24 00:31:20;;;;;;;4.55;2.50;;;;;;;13.94;100.00;95539.38;5009185;28;20078;-42
2022/11/24 00:33:50;;;;;;;6.05;2.42;;;;;;;13.81;100.00;95525.97;5003642;28;20154;-44
2022/11/24 00:36:21;;;;;;;3.95;2.95;;;;;;;14.30;100.00;95530.53;5001551;28;20077;-44
2022/11/24 00:38:53;;;;;;;4.65;2.38;;;;;;;14.19;100.00;95536.34;5004394;28;20311;-43
2022/11/24 00:41:23;;;;;;;5.57;2.45;;;;;;;14.33;100.00;95545.25;5002959;28;20088;-48
2022/11/24 00:43:51;;;;;;;5.65;2.95;;;;;;;14.48;100.00;95557.41;4997401;28;20093;-42
2022/11/24 00:46:20;;;;;;;6.00;2.90;;;;;;;14.35;100.00;95562.63;4990208;28;20090;-46
2022/11/24 00:48:48;;;;;;;3.75;2.33;;;;;;;14.06;100.00;95552.94;5004010;28;20449;-46
2022/11/24 00:51:18;;;;;;;6.22;2.63;;;;;;;13.98;100.00;95553.06;5002666;28;20173;-41
2022/11/24 00:53:46;;;;;;;4.30;2.50;;;;;;;14.13;100.00;95556.47;4995862;28;20488;-42
2022/11/24 00:56:15;;;;;;;3.85;2.60;;;;;;;14.23;100.00;95564.13;4999528;28;20070;-41
2022/11/24 00:58:44;;;;;;;4.72;2.70;;;;;;;14.30;100.00;95565.00;4996241;28;20123;-45
2022/11/24 01:01:14;;;;;;;4.57;2.90;;;;;;;14.12;100.00;95575.22;5001649;28;20751;-42
2022/11/24 01:03:43;;;;;;;3.70;2.47;;;;;;;14.43;100.00;95586.34;5003000;28;20082;-47
2022/11/24 01:06:13;;;;;;;5.78;2.72;;;;;;;14.34;100.00;95587.47;4997713;28;20070;-42
2022/11/24 01:08:42;;;;;;;3.30;2.70;;;;;;;14.07;100.00;95602.28;5003849;28;20093;-46
2022/11/24 01:11:12;;;;;;;7.53;2.97;;;;;;;14.16;100.00;95592.41;5003261;28;20089;-42
2022/11/24 01:13:41;;;;;;;4.18;2.67;;;;;;;14.57;100.00;95602.41;4992086;28;20128;-42
2022/11/24 01:16:20;;;;;;;4.35;2.50;;;;;;;14.24;100.00;95609.00;4994632;28;20093;-44
2022/11/24 01:18:49;;;;;;;4.65;2.88;;;;;;;14.58;100.00;95610.19;5003142;28;20093;-44
2022/11/24 01:21:18;;;;;;;3.53;2.58;;;;;;;14.58;100.00;95620.78;5012262;28;20084;-45
2022/11/24 01:23:46;;;;;;;5.95;2.70;;;;;;;14.40;100.00;95623.03;4994834;28;20473;-45
2022/11/24 01:26:16;;;;;;;4.22;2.58;;;;;;;14.12;100.00;95617.66;5006974;28;20542;-49
2022/11/24 01:28:44;;;;;;;6.22;2.80;;;;;;;14.38;100.00;95620.59;5002549;28;20085;-49
2022/11/24 01:31:16;;;;;;;4.75;2.50;;;;;;;14.31;100.00;95618.84;5004066;28;20092;-45
2022/11/24 01:33:45;;;;;;;3.55;2.42;;;;;;;14.28;100.00;95630.69;5005237;28;20512;-42
2022/11/24 01:36:13;;;;;;;6.93;2.80;;;;;;;14.53;100.00;95615.25;5009465;28;20076;-46
2022/11/24 01:38:41;;;;;;;3.60;2.42;;;;;;;14.30;100.00;95626.00;5000300;28;20093;-45
2022/11/24 01:41:12;;;;;;;3.58;2.45;;;;;;;14.64;100.00;95640.44;5008424;28;20085;-45
2022/11/24 01:43:41;;;;;;;4.35;2.80;;;;;;;14.78;100.00;95642.19;5004464;28;20555;-43
2022/11/24 01:46:17;;;;;;;4.38;2.50;;;;;;;14.88;100.00;95645.34;5010151;28;20085;-47
2022/11/24 01:48:50;;;;;;;4.13;2.50;;;;;;;14.67;100.00;95656.81;5008632;28;20073;-44
2022/11/24 01:51:22;;;;;;;2.78;2.50;;;;;;;14.78;100.00;95665.28;5002522;28;20085;-46
2022/11/24 01:53:54;;;;;;;4.70;2.75;;;;;;;14.61;100.00;95672.66;5009136;28;20084;-44
2022/11/24 01:56:22;;;;;;;8.25;2.92;;;;;;;15.14;100.00;95673.97;5006918;28;20057;-42
2022/11/24 01:58:52;;;;;;;5.55;3.22;;;;;;;15.29;100.00;95671.22;5002922;28;20068;-43
2022/11/24 02:01:22;;;;;;;5.43;2.95;;;;;;;15.60;100.00;95676.13;5002265;28;20102;-43
2022/11/24 02:03:52;;;;;;;3.97;2.70;;;;;;;15.11;100.00;95674.34;5005789;28;20085;-43
2022/11/24 02:06:23;;;;;;;8.65;2.80;;;;;;;15.34;100.00;95683.91;5011262;28;20551;-47
2022/11/24 02:08:55;;;;;;;8.70;3.17;;;;;;;15.20;100.00;95686.47;5002717;28;20078;-42
2022/11/24 02:11:26;;;;;;;8.15;3.17;;;;;;;14.72;100.00;95680.13;5004443;28;20092;-44
2022/11/24 02:13:55;;;;;;;4.20;2.78;;;;;;;14.72;100.00;95693.38;4998240;28;20089;-44
2022/11/24 02:16:25;;;;;;;6.70;2.92;;;;;;;15.38;100.00;95695.78;5002240;28;20085;-45
2022/11/24 02:18:53;;;;;;;5.07;2.88;;;;;;;15.56;100.00;95696.13;4998319;28;20603;-45
2022/11/24 02:21:22;;;;;;;6.22;3.28;;;;;;;15.26;100.00;95700.81;5006840;28;20073;-42
2022/11/24 02:23:55;;;;;;;3.88;2.70;;;;;;;15.60;100.00;95699.22;4999320;28;20097;-43
2022/11/24 02:26:34;;;;;;;5.90;2.97;;;;;;;15.19;100.00;95706.06;5004449;28;20088;-43
2022/11/24 02:29:03;;;;;;;3.83;2.55;;;;;;;15.19;100.00;95705.25;5005677;28;20588;-48
2022/11/24 02:31:31;;;;;;;7.20;3.05;;;;;;;15.46;100.00;95716.91;5009824;28;20082;-42
2022/11/24 02:34:00;;;;;;;5.07;2.63;;;;;;;15.02;100.00;95703.88;5002402;28;20092;-45
2022/11/24 02:36:28;;;;;;;5.15;2.75;;;;;;;15.01;100.00;95708.38;5009578;28;20591;-44
2022/11/24 02:38:56;;;;;;;6.93;2.60;;;;;;;15.02;100.00;95711.84;4999659;28;20089;-44
2022/11/24 02:41:25;;;;;;;4.30;2.40;;;;;;;14.99;100.00;95712.22;5009519;28;20465;-47
2022/11/24 02:43:56;;;;;;;6.18;2.60;;;;;;;14.67;100.00;95717.03;4996154;28;20500;-43
2022/11/24 02:46:25;;;;;;;3.70;2.60;;;;;;;14.48;100.00;95713.91;5008752;28;20077;-44
2022/11/24 02:48:53;;;;;;;6.10;2.60;;;;;;;15.02;100.00;95714.50;4999378;28;20082;-45
2022/11/24 02:51:22;;;;;;;7.90;2.58;;;;;;;14.59;100.00;95717.97;4999852;28;20096;-41
2022/11/24 02:53:50;;;;;;;5.13;2.60;;;;;;;14.80;100.00;95719.00;4998568;28;20085;-48
2022/11/24 02:56:18;;;;;;;4.88;2.20;;;;;;;14.20;100.00;95729.72;5006269;28;20077;-49
2022/11/24 02:58:46;;;;;;;6.18;2.53;;;;;;;14.71;100.00;95723.59;5010349;28;20528;-44
2022/11/24 03:01:16;;;;;;;6.43;2.40;;;;;;;14.61;100.00;95718.59;5001214;28;20093;-44
2022/11/24 03:03:45;;;;;;;2.55;2.20;;;;;;;14.62;100.00;95725.53;5006424;28;20085;-45
2022/11/24 03:06:13;;;;;;;5.85;2.25;;;;;;;14.31;100.00;95728.41;4998450;28;20192;-48
2022/11/24 03:08:41;;;;;;;3.35;2.38;;;;;;;14.43;100.00;95729.59;5006827;28;20096;-47
2022/11/24 03:11:10;;;;;;;3.38;2.40;;;;;;;14.66;100.00;95728.66;5004171;28;20441;-44
2022/11/24 03:13:38;;;;;;;6.03;2.17;;;;;;;14.55;100.00;95734.44;5003729;28;20481;-50
2022/11/24 03:16:09;;;;;;;5.88;2.40;;;;;;;14.48;100.00;95742.28;4999142;28;20078;-42
2022/11/24 03:18:38;;;;;;;2.72;1.90;;;;;;;14.45;100.00;95743.50;5001360;28;20085;-44
2022/11/24 03:21:07;;;;;;;4.15;2.10;;;;;;;13.99;100.00;95740.25;5007329;28;20074;-42
2022/11/24 03:23:35;;;;;;;4.90;2.30;;;;;;;14.31;100.00;95749.63;5005320;28;20441;-43
2022/11/24 03:26:08;;;;;;;3.58;2.10;;;;;;;14.62;100.00;95746.75;5007099;28;20078;-50
2022/11/24 03:28:36;;;;;;;3.47;2.20;;;;;;;14.16;100.00;95757.59;5007541;28;20077;-44
2022/11/24 03:31:06;;;;;;;3.78;2.05;;;;;;;14.17;100.00;95742.50;5002771;28;20473;-50
2022/11/24 03:33:34;;;;;;;2.30;2.10;;;;;;;14.20;100.00;95753.56;5008893;28;20077;-43
2022/11/24 03:36:05;;;;;;;3.17;2.03;;;;;;;14.37;100.00;95759.50;5008074;28;20084;-45
2022/11/24 03:38:33;;;;;;;3.38;2.13;;;;;;;14.14;100.00;95761.44;5004323;28;20069;-50
2022/11/24 03:41:02;;;;;;;2.55;2.10;;;;;;;14.59;100.00;95752.47;5004319;28;20528;-48
2022/11/24 03:43:30;;;;;;;1.90;1.80;;;;;;;13.83;100.00;95769.56;5008938;28;20108;-43
2022/11/24 03:45:58;;;;;;;3.90;2.10;;;;;;;14.20;100.00;95772.13;5005514;28;20547;-44
2022/11/24 03:48:27;;;;;;;2.00;1.80;;;;;;;13.90;100.00;95779.28;5004116;28;20069;-42
2022/11/24 03:50:57;;;;;;;3.22;1.92;;;;;;;14.15;100.00;95785.13;5005287;28;20082;-43
2022/11/24 03:53:28;;;;;;;2.38;2.10;;;;;;;14.86;100.00;95779.28;5008387;28;20100;-43
2022/11/24 03:55:56;;;;;;;2.00;1.80;;;;;;;14.41;100.00;95794.44;5001958;28;20082;-45
2022/11/24 03:58:25;;;;;;;4.60;2.00;;;;;;;14.62;100.00;95801.66;4997120;28;20533;-51
2022/11/24 04:00:54;;;;;;;3.78;2.00;;;;;;;14.48;100.00;95817.38;5002930;28;20081;-46
2022/11/24 04:03:23;;;;;;;2.15;1.95;;;;;;;15.03;100.00;95817.84;5004160;28;20707;-43
2022/11/24 04:05:52;;;;;;;2.25;2.00;;;;;;;14.94;100.00;95814.50;5003712;28;20086;-43
2022/11/24 04:08:20;;;;;;;3.42;2.05;;;;;;;15.25;100.00;95823.19;4996148;28;20073;-47
2022/11/24 04:10:51;;;;;;;2.75;2.10;;;;;;;15.11;100.00;95809.78;5006632;28;20084;-51
2022/11/24 04:13:21;;;;;;;4.38;1.90;;;;;;;15.08;100.00;95796.88;5003642;28;20085;-43
2022/11/24 04:15:49;;;;;;;2.03;1.83;;;;;;;15.06;100.00;95800.72;5007575;28;20077;-45
2022/11/24 04:18:18;;;;;;;4.72;2.28;;;;;;;15.56;100.00;95791.81;5004619;28;20093;-43
2022/11/24 04:20:49;;;;;;;4.70;2.13;;;;;;;15.65;100.00;95787.97;4998366;28;20109;-46
2022/11/24 04:23:17;;;;;;;;;;;;;;;15.42;100.00;95785.56;4999898;28;20078;-43
2022/11/24 04:25:45;;;;;;;3.05;1.90;;;;;;;15.62;100.00;95790.19;5001889;28;19959;-47
2022/11/24 04:28:15;;;;;;;4.38;2.20;;;;;;;15.87;100.00;95799.44;4996394;28;20069;-44
2022/11/24 04:30:43;;;;;;;3.45;2.05;;;;;;;15.59;100.00;95796.75;4997975;28;20078;-44
2022/11/24 04:33:13;;;;;;;2.63;1.95;;;;;;;14.88;100.00;95804.63;5005345;28;20675;-44
2022/11/24 04:35:41;;;;;;;3.25;1.92;;;;;;;15.29;100.00;95806.69;5003434;28;20126;-43
2022/11/24 04:38:09;;;;;;;4.05;1.90;;;;;;;14.98;100.00;95806.16;5007497;28;20081;-41
2022/11/24 04:40:38;;;;;;;2.03;1.85;;;;;;;15.23;100.00;95801.31;5006877;28;20743;-45
2022/11/24 04:43:06;;;;;;;2.92;1.85;;;;;;;15.27;100.00;95806.03;5002414;28;20086;-44
2022/11/24 04:45:36;;;;;;;3.72;2.20;;;;;;;15.77;100.00;95804.25;5007412;28;20082;-42
2022/11/24 04:48:04;;;;;;;3.03;1.90;;;;;;;15.63;100.00;95819.25;5003869;28;20086;-42
2022/11/24 04:50:33;;;;;;;2.25;1.90;;;;;;;15.82;100.00;95815.13;5003211;28;20121;-45
2022/11/24 04:53:01;;;;;;;2.05;1.90;;;;;;;15.46;100.00;95820.53;5003581;28;20077;-44
2022/11/24 04:55:30;;;;;;;4.80;2.22;;;;;;;15.51;100.00;95822.59;5005116;28;20078;-43
2022/11/24 04:57:58;;;;;;;4.18;2.03;;;;;;;15.37;100.00;95819.81;5005080;28;20089;-44
2022/11/24 05:00:26;;;;;;;3.67;1.90;;;;;;;15.64;100.00;95828.03;4998730;28;20081;-42
2022/11/24 05:02:56;;;;;;;2.13;1.80;;;;;;;15.66;100.00;95818.91;4999448;28;20100;-42
2022/11/24 05:05:24;;;;;;;3.40;1.83;;;;;;;15.27;100.00;95831.78;5004941;28;20632;-47
2022/11/24 05:07:53;;;;;;;3.47;1.90;;;;;;;14.99;100.00;95834.34;5008135;28;20112;-42
2022/11/24 05:10:36;;;;;;;3.35;2.30;;;;;;;15.29;100.00;95841.22;5003747;28;20090;-46
2022/11/24 05:13:06;;;;;;;3.80;2.08;;;;;;;15.34;100.00;95832.66;5005822;28;20096;-44
2022/11/24 05:15:36;;;;;;;2.97;1.80;;;;;;;15.52;100.00;95837.53;4999784;28;20513;-46
2022/11/24 05:18:07;;;;;;;3.25;2.10;;;;;;;15.65;100.00;95838.47;5002285;28;20475;-48
2022/11/24 05:20:35;;;;;;;;;;;;;;;15.77;100.00;95851.31;5000039;28;20082;-45
2022/11/24 05:23:04;;;;;;;2.90;2.10;;;;;;;15.36;100.00;95857.22;4998433;28;19972;-47
2022/11/24 05:25:33;;;;;;;3.17;2.03;;;;;;;15.26;100.00;95864.69;5000387;28;20092;-48
2022/11/24 05:28:02;;;;;;;3.05;1.90;;;;;;;15.52;100.00;95861.44;5004811;28;20081;-46
2022/11/24 05:30:30;;;;;;;4.28;2.25;;;;;;;15.59;100.00;95862.38;5011194;28;20082;-47
2022/11/24 05:32:59;;;;;;;3.53;2.03;;;;;;;15.59;100.00;95867.69;5011611;28;20111;-45
2022/11/24 05:35:29;;;;;;;2.40;2.20;;;;;;;16.06;100.00;95866.25;5007313;28;20086;-42
2022/11/24 05:37:58;;;;;;;3.75;2.17;;;;;;;16.27;100.00;95874.16;5008323;28;20572;-44
2022/11/24 05:40:26;;;;;;;3.15;2.10;;;;;;;16.63;100.00;95875.84;5004582;28;20081;-45
2022/11/24 05:42:54;;;;;;;2.30;2.10;;;;;;;16.33;100.00;95869.91;5011706;28;20088;-47
2022/11/24 05:45:23;;;;;;;4.55;2.15;;;;;;;15.96;100.00;95871.88;5005281;28;20692;-46
2022/11/24 05:47:52;;;;;;;4.88;2.42;;;;;;;15.43;100.00;95882.03;5009907;28;20536;-44
2022/11/24 05:50:22;;;;;;;4.22;2.10;;;;;;;16.09;100.00;95879.97;5006826;28;20077;-44
2022/11/24 05:52:52;;;;;;;6.32;2.20;;;;;;;16.20;100.00;95886.59;5002326;28;20085;-51
2022/11/24 05:55:20;;;;;;;6.57;2.17;;;;;;;15.68;100.00;95892.31;4992540;28;20094;-46
2022/11/24 05:57:48;;;;;;;2.10;1.90;;;;;;;15.25;100.00;95893.09;5005900;28;20078;-42
2022/11/24 06:00:18;;;;;;;3.38;2.30;;;;;;;15.90;100.00;95889.44;5008158;28;20082;-43
2022/11/24 06:02:47;;;;;;;4.57;2.50;;;;;;;15.75;100.00;95885.22;5005154;28;20086;-49
2022/11/24 06:05:16;;;;;;;3.03;2.17;;;;;;;15.78;100.00;95895.47;5009167;28;20539;-44
2022/11/24 06:07:44;;;;;;;5.13;2.30;;;;;;;15.86;100.00;95903.31;5006687;28;20583;-43
2022/11/24 06:10:15;;;;;;;6.60;2.30;;;;;;;16.09;100.00;95903.91;4992260;28;20085;-44
2022/11/24 06:12:43;;;;;;;3.95;2.03;;;;;;;15.91;100.00;95908.88;5001135;28;20140;-44
2022/11/24 06:15:12;;;;;;;3.40;2.20;;;;;;;15.74;100.00;95910.97;5003850;28;20073;-43
2022/11/24 06:17:40;;;;;;;5.45;2.17;;;;;;;16.79;100.00;95910.16;5006899;28;20109;-43
2022/11/24 06:20:10;;;;;;;5.25;2.13;;;;;;;15.65;100.00;95904.09;5009784;28;20081;-46
2022/11/24 06:22:39;;;;;;;4.13;2.17;;;;;;;16.56;100.00;95912.25;4999964;28;20096;-46
2022/11/24 06:25:08;;;;;;;4.47;2.40;;;;;;;16.09;100.00;95911.91;5009936;28;20080;-41
2022/11/24 06:27:37;;;;;;;6.88;2.40;;;;;;;16.06;100.00;95922.91;5005961;28;20085;-47
2022/11/24 06:30:07;;;;;;;8.30;2.50;;;;;;;15.57;100.00;95926.31;5003775;28;20456;-45
2022/11/24 06:32:35;;;;;;;4.90;2.13;;;;;;;15.37;100.00;95928.75;5004071;28;20096;-43
2022/11/24 06:35:04;;;;;;;5.82;2.20;;;;;;;15.85;100.00;95922.94;5007184;28;20073;-45
2022/11/24 06:37:32;;;;;;;5.45;2.42;;;;;;;15.36;100.00;95926.31;5008941;28;20084;-45
2022/11/24 06:40:00;;;;;;;8.65;2.70;;;;;;;15.61;100.00;95932.91;5010086;28;20082;-41
2022/11/24 06:42:29;;;;;;;4.65;2.20;;;;;;;15.40;100.00;95936.34;5004107;28;20080;-47
2022/11/24 06:44:58;;;;;;;5.35;2.30;;;;;;;15.62;100.00;95937.22;5002809;28;20085;-42
2022/11/24 06:47:27;;;;;;;5.28;2.35;;;;;;;15.71;100.00;95940.59;5010814;28;20088;-41
2022/11/24 06:49:55;;;;;;;6.07;2.13;;;;;;;15.69;100.00;95937.31;4997327;28;20148;-44
2022/11/24 06:52:24;;;;;;;6.63;2.55;;;;;;;15.52;100.00;95941.16;5010603;28;20124;-44
2022/11/24 06:54:52;;;;;;;5.88;2.17;;;;;;;15.24;100.00;95944.53;5003069;28;20090;-47
2022/11/24 06:57:20;;;;;;;7.10;2.80;;;;;;;15.54;100.00;95945.28;4994488;28;20078;-46
2022/11/24 06:59:49;;;;;;;3.92;1.98;;;;;;;15.17;100.00;95941.84;5004115;28;20078;-44
2022/11/24 07:02:19;;;;;;;6.68;2.30;;;;;;;16.07;100.00;95945.84;4999565;28;20508;-43
2022/11/24 07:04:47;;;;;;;8.57;2.67;;;;;;;16.19;100.00;95942.66;4994688;28;20521;-46
2022/11/24 07:07:15;;;;;;;6.00;2.60;;;;;;;15.62;100.00;95937.22;5002439;28;20081;-45
2022/11/24 07:09:44;;;;;;;8.43;2.45;;;;;;;15.96;100.00;95937.56;4997255;28;20128;-45
2022/11/24 07:12:12;;;;;;;8.68;2.92;;;;;;;16.10;100.00;95944.63;5003838;28;20460;-43
2022/11/24 07:14:41;;;;;;;11.90;2.60;;;;;;;15.68;100.00;95948.13;5002647;28;20078;-42
2022/11/24 07:17:09;;;;;;;6.78;2.30;;;;;;;15.24;100.00;95938.41;5003311;28;20543;-45
2022/11/24 07:19:39;;;;;;;4.53;2.10;;;;;;;15.70;100.00;95949.59;4997491;28;20088;-43
2022/11/24 07:22:07;;;;;;;6.93;2.27;;;;;;;15.27;100.00;95953.97;5001236;28;20096;-43
2022/11/24 07:24:36;;;;;;;5.90;2.10;;;;;;;15.60;100.00;95946.38;5003490;28;20496;-42
2022/11/24 07:27:04;;;;;;;7.10;2.45;;;;;;;15.46;100.00;95952.56;5009809;28;20077;-46
2022/11/24 07:29:33;;;;;;;5.43;2.08;;;;;;;15.61;100.00;95956.00;5008495;28;20541;-44
2022/11/24 07:32:01;;;;;;;8.00;2.10;;;;;;;15.93;100.00;95967.19;4997259;28;20077;-43
2022/11/24 07:34:33;;;;;;;8.23;2.70;;;;;;;15.65;100.00;95960.75;5006259;28;20073;-47
2022/11/24 07:37:03;;;;;;;8.05;2.28;;;;;;;15.92;100.00;95954.91;5000464;28;20139;-43
2022/11/24 07:39:31;;;;;;;5.50;2.03;;;;;;;16.26;97.72;95960.31;4994593;28;20082;-48
2022/11/24 07:42:00;;;;;;;7.72;1.90;;;;;;;15.86;98.48;95951.16;5001390;28;20492;-43
2022/11/24 07:44:28;;;;;;;2.72;2.08;;;;;;;15.52;100.00;95960.63;5003462;28;20120;-44
2022/11/24 07:46:57;;;;;;;5.63;2.10;;;;;;;15.83;91.90;95949.72;5004787;28;20710;-44
2022/11/24 07:49:25;;;;;;;8.00;2.20;;;;;;;15.45;100.00;95962.38;5005803;28;20085;-44
2022/11/24 07:51:53;;;;;;;7.70;2.35;;;;;;;16.09;94.19;95969.59;5002644;28;20621;-45
2022/11/24 07:54:23;;;;;;;5.05;2.40;;;;;;;15.93;95.75;95965.34;5000920;28;20070;-43
2022/11/24 07:56:51;;;;;;;7.95;2.40;;;;;;;15.96;92.41;95969.47;4999784;28;20096;-45
2022/11/24 07:59:20;;;;;;;5.20;2.20;;;;;;;16.68;84.96;95963.09;4999702;28;20073;-50
2022/11/24 08:01:48;;;;;;;11.15;2.80;;;;;;;16.74;81.19;95960.50;4991343;28;20105;-51
2022/11/24 08:04:17;;;;;;;7.38;2.50;;;;;;;16.68;80.54;95968.41;5001075;28;20069;-44
2022/11/24 08:06:45;;;;;;;8.75;2.90;;;;;;;16.87;78.84;95965.09;5006062;28;20837;-44
2022/11/24 08:09:14;;;;;;;6.77;2.90;;;;;;;16.93;79.72;95966.97;4999633;28;20097;-46
2022/11/24 08:11:44;;;;;;;8.13;2.70;;;;;;;17.23;75.55;95956.03;4996293;28;20101;-49
2022/11/24 08:14:12;;;;;;;7.88;2.80;;;;;;;16.75;77.37;95954.16;4996227;28;20093;-45
2022/11/24 08:16:41;;;;;;;7.50;2.42;;;;;;;16.66;79.93;95963.28;5009827;28;20519;-48
2022/11/24 08:19:10;;;;;;;6.43;2.45;;;;;;;16.48;85.02;95970.94;5003023;28;20546;-43
2022/11/24 08:21:39;;;;;;;7.80;2.47;;;;;;;17.16;77.44;95965.84;4999841;28;20085;-46
2022/11/24 08:24:08;;;;;;;4.72;2.30;;;;;;;16.47;82.10;95963.97;5009488;28;20479;-42
2022/11/24 08:26:36;;;;;;;6.68;2.05;;;;;;;16.63;82.34;95966.34;5008546;28;20078;-42
2022/11/24 08:29:06;;;;;;;5.25;2.15;;;;;;;16.99;79.33;95958.19;5005139;28;20446;-43
2022/11/24 08:31:35;;;;;;;11.97;2.57;;;;;;;17.26;74.89;95961.78;5013428;28;20081;-46
2022/11/24 08:34:06;;;;;;;7.03;2.30;;;;;;;16.85;78.09;95965.28;5007108;28;20509;-45
2022/11/24 08:36:34;;;;;;;9.70;2.00;;;;;;;16.20;81.39;95969.06;5007830;28;20089;-47
2022/11/24 08:39:03;;;;;;;6.75;2.47;;;;;;;17.24;72.79;95979.84;5013841;28;20078;-48
2022/11/24 08:41:32;;;;;;;7.40;2.25;;;;;;;16.74;82.38;95976.47;4994963;28;20085;-44
2022/11/24 08:44:00;;;;;;;5.32;1.85;;;;;;;16.54;79.77;95983.47;5004792;28;20089;-49
2022/11/24 08:46:30;;;;;;;6.95;2.13;;;;;;;16.74;78.65;95973.81;5004929;28;20097;-46
2022/11/24 08:48:59;;;;;;;5.82;2.05;;;;;;;16.61;78.45;95985.16;5009763;28;20089;-48
2022/11/24 08:51:27;;;;;;;4.45;1.80;;;;;;;16.70;80.00;95977.03;5000045;28;20100;-48
2022/11/24 08:53:57;;;;;;;7.35;1.98;;;;;;;16.59;81.68;95981.88;4996329;28;20093;-46
2022/11/24 08:56:26;;;;;;;5.05;2.45;;;;;;;16.74;76.69;95979.13;5000782;28;20559;-49
2022/11/24 08:58:54;;;;;;;6.10;2.30;;;;;;;16.62;77.44;95978.00;5008681;28;20078;-43
2022/11/24 09:01:24;;;;;;;5.30;2.30;;;;;;;17.46;69.38;95964.53;5004636;28;20092;-47
2022/11/24 09:03:53;;;;;;;8.00;2.55;;;;;;;17.17;71.77;95968.34;5005989;28;20073;-43
2022/11/24 09:06:24;;;;;;;8.18;2.50;;;;;;;17.29;71.97;95972.06;5008848;28;20084;-45
2022/11/24 09:08:54;;;;;;;8.05;2.20;;;;;;;17.63;68.24;95954.34;5004965;28;20482;-43
2022/11/24 09:11:23;;;;;;;6.30;2.40;;;;;;;17.13;68.64;95953.75;4993567;28;20081;-47
2022/11/24 09:13:51;;;;;;;3.45;1.70;;;;;;;16.94;73.66;95965.13;5005588;28;20056;-43
2022/11/24 09:16:22;;;;;;;10.50;2.50;;;;;;;17.68;66.86;95959.06;5010476;28;20077;-45
2022/11/24 09:18:56;;;;;;;5.70;2.38;;;;;;;17.46;67.93;95958.41;5005390;28;20128;-43
2022/11/24 09:21:24;;;;;;;8.25;2.25;;;;;;;17.84;65.90;95965.91;5003119;28;20081;-45
2022/11/24 09:23:53;;;;;;;7.03;2.08;;;;;;;17.64;67.04;95974.66;5004208;28;20081;-42
2022/11/24 09:26:23;;;;;;;6.15;2.05;;;;;;;17.78;68.00;95971.03;4995912;28;20462;-43
2022/11/24 09:28:54;;;;;;;7.70;2.30;;;;;;;17.47;70.08;95965.38;5003439;28;20089;-42
2022/11/24 09:31:24;;;;;;;2.92;1.67;;;;;;;17.65;69.48;95973.66;5011753;28;20093;-41
2022/11/24 09:33:53;;;;;;;;;;;;;;;17.30;67.66;95954.22;5011543;28;20539;-45
2022/11/24 09:36:23;;;;;;;5.38;1.95;;;;;;;17.27;73.08;95970.59;5000340;28;19972;-43
2022/11/24 09:38:52;;;;;;;6.00;2.10;;;;;;;17.72;70.24;95971.81;5004938;28;20163;-47
2022/11/24 09:42:11;;;;;;;7.38;2.75;;;;;;;17.24;67.16;95961.19;5007214;28;20058;-46
2022/11/24 09:45:11;;;;;;;5.05;1.90;;;;;;;17.42;65.99;95970.47;4910355;29;20084;-46
2022/11/24 09:47:47;;;;;;;6.55;2.10;;;;;;;17.64;67.76;95974.66;4981865;28;20105;-47
2022/11/24 09:50:17;;;;;;;7.63;2.00;;;;;;;17.83;66.77;95972.28;4999043;28;20072;-44
2022/11/24 09:52:49;;;;;;;4.40;1.80;;;;;;;17.80;63.82;95970.84;5011956;28;20070;-43
2022/11/24 09:55:25;;;;;;;2.03;1.58;;;;;;;17.00;70.56;95972.34;5001162;28;20070;-47
2022/11/24 09:57:59;;;;;;;6.75;1.85;;;;;;;16.97;70.12;95984.22;5011663;28;20538;-43
2022/11/24 10:00:28;;;;;;;6.45;1.80;;;;;;;17.67;69.63;95982.25;4999191;28;20145;-44
2022/11/24 10:02:57;;;;;;;5.78;1.98;;;;;;;17.41;68.73;95988.31;5005332;28;20292;-46
2022/11/24 10:05:26;;;;;;;5.70;2.08;;;;;;;17.02;76.99;95980.94;5011642;28;20082;-46
2022/11/24 10:08:03;;;;;;;5.13;1.60;;;;;;;16.76;76.35;95977.13;5003486;28;20069;-42
2022/11/24 10:10:40;;;;;;;4.03;1.77;;;;;;;17.21;73.40;95982.09;5004208;28;20089;-45
2022/11/24 10:13:16;;;;;;;7.78;1.80;;;;;;;17.07;69.81;95975.88;5004664;28;20061;-44
2022/11/24 10:15:52;;;;;;;2.58;1.40;;;;;;;17.18;70.38;95985.97;5003203;28;20098;-46
2022/11/24 10:18:33;;;;;;;2.90;1.60;;;;;;;16.71;76.61;96006.13;5004029;28;20535;-42
2022/11/24 10:21:13;;;;;;;5.13;1.95;;;;;;;17.59;72.79;95989.63;5002228;28;20096;-40
2022/11/24 10:23:55;;;;;;;8.43;1.73;;;;;;;17.09;72.58;96000.44;5006622;28;20077;-47
2022/11/24 10:26:31;;;;;;;3.83;1.33;;;;;;;17.03;73.94;95999.41;5011700;28;20066;-45
2022/11/24 10:29:00;;;;;;;4.78;1.50;;;;;;;16.81;74.53;95998.66;5004070;28;20089;-43
2022/11/24 10:31:30;;;;;;;8.95;2.00;;;;;;;16.92;81.67;95991.94;4998443;28;20303;-45
2022/11/24 10:34:01;;;;;;;2.45;1.77;;;;;;;16.77;84.58;95997.41;5004440;28;20077;-47
2022/11/24 10:36:35;;;;;;;7.22;1.50;;;;;;;16.32;89.30;96007.47;4998985;28;20096;-46
2022/11/24 10:39:11;;;;;;;3.80;1.45;;;;;;;16.33;88.54;96008.28;4996655;28;20136;-42
2022/11/24 10:41:44;;;;;;;1.40;1.30;;;;;;;15.59;99.54;96009.34;5009540;28;20085;-43
2022/11/24 10:44:13;;;;;;;2.05;1.48;;;;;;;15.13;100.00;96020.22;5000693;28;20073;-42
2022/11/24 10:46:42;;;;;;;1.47;1.37;;;;;;;15.19;100.00;96018.66;4991405;28;20082;-48
2022/11/24 10:49:18;;;;;;;1.50;1.40;;;;;;;14.89;100.00;96031.91;5006080;28;20085;-44
2022/11/24 10:51:55;;;;;;;1.48;1.40;;;;;;;14.84;100.00;96038.81;5009788;28;20092;-45
2022/11/24 10:54:24;;;;;;;2.13;1.67;;;;;;;14.41;100.00;96054.41;4998521;28;20085;-43
2022/11/24 10:56:54;;;;;;;1.90;1.40;;;;;;;14.96;100.00;96050.59;5010560;28;20073;-44
2022/11/24 10:59:38;;;;;;;4.22;1.60;;;;;;;15.18;100.00;96057.69;5004536;28;20091;-43
2022/11/24 11:02:37;;;;;;;2.13;1.70;;;;;;;14.73;100.00;96058.66;5005686;28;20492;-42
2022/11/24 11:05:31;;;;;;;2.17;1.50;;;;;;;14.70;100.00;96064.31;5009294;28;20512;-45
2022/11/24 11:08:14;;;;;;;3.58;1.90;;;;;;;15.45;100.00;96047.41;5001284;28;20076;-43
2022/11/24 11:10:45;;;;;;;1.95;1.70;;;;;;;15.46;100.00;96048.22;5003246;28;20088;-44
2022/11/24 11:13:27;;;;;;;2.35;1.63;;;;;;;16.22;100.00;96054.84;4995654;28;20073;-46
2022/11/24 11:15:57;;;;;;;3.13;1.67;;;;;;;16.03;100.00;96037.66;4998272;28;20089;-45
2022/11/24 11:18:31;;;;;;;4.78;3.53;;;;;;;15.34;100.00;96053.19;4995400;28;20069;-47
2022/11/24 11:21:01;;;;;;;4.55;1.70;;;;;;;16.08;100.00;96053.88;5005356;28;20084;-44
2022/11/24 11:23:31;;;;;;;;;;;;;;;16.38;100.00;96043.97;5006714;28;20562;-46
2022/11/24 11:26:27;;;;;;;4.22;1.70;;;;;;;16.46;100.00;96050.16;4997245;28;19967;-42
2022/11/24 11:29:00;;;;;;;6.15;1.80;;;;;;;15.44;100.00;96057.19;4998235;28;20066;-43
2022/11/24 11:32:17;;;;;;;4.05;1.80;;;;;;;16.95;100.00;96050.16;4999128;28;20528;-45
2022/11/24 11:35:06;;;;;;;4.47;1.90;;;;;;;16.21;100.00;96050.56;5006621;28;21949;-43
2022/11/24 11:37:36;;;;;;;7.22;2.10;;;;;;;16.12;100.00;96049.00;5007532;28;20495;-42
2022/11/24 11:40:11;;;;;;;3.75;1.90;;;;;;;15.94;100.00;96046.78;5007652;28;20082;-41
2022/11/24 11:42:47;;;;;;;4.28;1.90;;;;;;;16.38;100.00;96051.13;4999036;28;20078;-43
2022/11/24 11:45:34;;;;;;;1.60;1.50;;;;;;;15.97;100.00;96057.06;5009538;28;20069;-42